Americus, GA

2:35 AM EST on January 30, 2015 (GMT -0500)
RAWS AMERICUS/PLAINS GA US | Change Station
CLOSE
Current Station
Personal Weather Station
Location: Americus, GA
Elevation: 456 ft
Nearby Weather Stations

Elev 456 ft 32.11 °N, 84.18 °W | Updated 32 minutes ago

Overcast
Overcast
54 °F
Feels Like 54 °F
N
7
Wind Variable Wind from WSW
Gusts 13.0 mph

Today
High -- | Low -- °F
--% Chance of Precip.
Yesterday
High -- | Low -- °F
Precip. -- in
7:31 AM 6:08 PM
Waxing Gibbous, 80% visible
Pressure 30.14 in
Visibility 10.0 miles
Clouds Overcast 2600 ft
Dew Point 50 °F
Humidity 86%
Rainfall -999.00 in
Snow Depth Not available.
UV 0 out of 12
Pollen 1.80 out of 12
Air Quality Not available.
Flu Activity Not available.
METAR KACJ 300655Z AUTO 24005KT 10SM OVC026 12/10 A3014 RMK AO2

More Conditions Fewer Conditions

Pressure 30.14 in
Visibility 10.0 miles
Clouds Overcast 2600 ft
Dew Point 50 °F
Humidity 86%
Rainfall -999.00 in
Snow Depth Not available.
UV 0 out of 12
Pollen 1.80 out of 12
Air Quality Not available.
Flu Activity Not available.
METAR KACJ 300655Z AUTO 24005KT 10SM OVC026 12/10 A3014 RMK AO2

More Conditions Fewer Conditions

10-Day Weather Forecast

Almanac

Astronomy

Jan. 30, 2015 Rise Set
Actual Time
Civil Twilight
Nautical Twilight
Astronomical Twilight
Moon
Length of Visible Light
Length of Day
Tomorrow will be .
, % of the Moon is Illuminated

Today's Extremes

State Highs State Lows

Community

WunderPhotos

Upload Photos

1,791,726 photos uploaded!

WunderBlogs® & News

Nearby

Air Quality

  Air Quality AQ Index Pollutant
Not available.

Snow Depth

Station Depth Elevation

Earthquake Activity

City Distance Mag. Time & Date
Minimum magnitude displayed is 2.5.

Coastal Water Temperatures

Place Temperature

Nearby Weather Stations